Time;durP1;ratioP1;P1;durP2;ratioP2;P2;SDS_P1;SDS_P2;PMS_P1;PMS_P2;Temp;Humidity;BMP_temperature;BMP_pressure;BME280_temperature;BME280_humidity;BME280_pressure;Samples;Min_cycle;Max_cycle;Signal;HPM_P1;HPM_P2
2021/07/10 06:24:12;;;;;;;1.05;0.80;;;16.80;99.90;;;;;;6149773;22;21431;31
2021/07/10 06:26:47;;;;;;;1.10;1.00;;;17.20;99.90;;;;;;6154012;23;20394;-96
2021/07/10 06:29:19;;;;;;;1.75;1.20;;;17.40;99.90;;;;;;6124287;23;20392;-96
2021/07/10 06:31:49;;;;;;;2.38;1.30;;;17.60;99.90;;;;;;6110044;23;20422;-96
2021/07/10 06:34:20;;;;;;;3.60;1.10;;;17.90;99.90;;;;;;6099898;23;20394;-96
2021/07/10 06:36:47;;;;;;;1.00;0.90;;;18.30;99.90;;;;;;6124383;23;20404;-96
2021/07/10 06:39:15;;;;;;;3.42;1.27;;;18.40;99.90;;;;;;6129047;23;20499;-96
2021/07/10 06:41:42;;;;;;;1.75;1.25;;;18.70;99.90;;;;;;6153011;23;20446;-96
2021/07/10 06:44:09;;;;;;;2.55;1.10;;;19.00;99.90;;;;;;6136542;23;20379;-96
2021/07/10 06:46:36;;;;;;;1.58;1.00;;;19.30;99.90;;;;;;6133819;23;20391;-96
2021/07/10 06:49:04;;;;;;;1.20;1.10;;;19.50;99.90;;;;;;6134815;23;20393;-96
2021/07/10 06:51:31;;;;;;;1.92;1.20;;;19.80;99.90;;;;;;6134882;23;20398;-96
2021/07/10 06:53:58;;;;;;;1.90;1.10;;;19.70;99.90;;;;;;6136005;23;20462;-96
2021/07/10 06:56:27;;;;;;;3.28;1.30;;;19.60;99.90;;;;;;6136316;23;20390;-96
2021/07/10 06:58:54;;;;;;;2.40;1.05;;;19.60;99.90;;;;;;6136364;23;20467;-96
2021/07/10 07:01:23;;;;;;;1.42;1.00;;;19.50;99.90;;;;;;6166633;23;20478;-95
2021/07/10 07:03:58;;;;;;;2.25;1.30;;;19.20;99.90;;;;;;6136716;23;20395;-96
2021/07/10 07:06:25;;;;;;;2.63;1.38;;;18.80;99.90;;;;;;6131945;23;20387;-96
2021/07/10 07:08:55;;;;;;;1.95;1.30;;;18.60;99.90;;;;;;6134105;23;20391;-96
2021/07/10 07:11:22;;;;;;;2.97;1.42;;;18.70;99.90;;;;;;6134871;23;20450;-94
2021/07/10 07:14:01;;;;;;;1.80;1.40;;;18.80;99.90;;;;;;6137628;23;20390;-96
2021/07/10 07:36:18;;;;;;;4.20;1.20;;;19.20;99.90;;;;;;6128288;23;20385;-95
2021/07/10 07:38:45;;;;;;;3.40;1.10;;;18.80;99.90;;;;;;6190131;23;20403;-94
2021/07/10 07:41:12;;;;;;;1.42;1.10;;;18.40;99.90;;;;;;6189403;23;20383;-93
2021/07/10 07:43:39;;;;;;;1.65;1.40;;;18.30;99.90;;;;;;6190125;23;20399;-93
2021/07/10 07:46:06;;;;;;;1.30;1.20;;;18.30;99.90;;;;;;6190258;23;20490;-93
2021/07/10 07:48:33;;;;;;;2.47;1.20;;;18.10;99.90;;;;;;6190648;23;20442;-96
2021/07/10 07:51:02;;;;;;;2.72;1.30;;;18.20;99.90;;;;;;6189818;23;20388;-94
2021/07/10 07:53:29;;;;;;;4.45;1.00;;;18.20;99.90;;;;;;6189787;23;20478;-95
2021/07/10 07:55:56;;;;;;;4.40;1.00;;;18.50;99.90;;;;;;6190072;23;20391;-96
2021/07/10 07:58:23;;;;;;;1.80;1.30;;;18.70;99.90;;;;;;6189260;23;20391;-94
2021/07/10 08:00:50;;;;;;;3.63;1.08;;;18.70;99.90;;;;;;6189506;23;20475;-95
2021/07/10 08:03:17;;;;;;;5.40;1.00;;;18.80;99.90;;;;;;6192066;23;20391;-96
2021/07/10 08:05:44;;;;;;;2.70;1.02;;;18.80;99.90;;;;;;6192090;23;20391;-94
2021/07/10 08:08:12;;;;;;;1.52;1.13;;;18.70;99.90;;;;;;6191340;23;20391;-93
2021/07/10 09:15:28;;;;;;;2.03;0.70;;;20.30;99.90;;;;;;6181230;23;20397;-96
2021/07/10 09:17:55;;;;;;;2.10;0.63;;;20.70;99.90;;;;;;6166645;23;20366;-95
2021/07/10 09:20:25;;;;;;;1.70;0.60;;;21.10;99.90;;;;;;6161925;23;20468;-95
2021/07/10 09:22:53;;;;;;;0.70;0.60;;;21.30;99.90;;;;;;6164837;23;20476;-96
2021/07/10 09:25:25;;;;;;;2.20;0.60;;;21.70;99.90;;;;;;6167316;23;20396;-96
2021/07/10 09:27:55;;;;;;;2.75;0.60;;;22.00;99.90;;;;;;6146110;23;20409;-96
2021/07/10 09:30:34;;;;;;;1.05;0.60;;;22.00;99.90;;;;;;6165763;23;20389;-95
2021/07/10 09:33:12;;;;;;;2.40;0.55;;;21.60;99.90;;;;;;6169474;23;20397;-96
2021/07/10 09:35:53;;;;;;;1.50;0.60;;;21.30;99.90;;;;;;6162117;23;20710;-95
2021/07/10 09:38:42;;;;;;;1.65;0.70;;;21.20;99.90;;;;;;6162225;23;20472;-96
2021/07/10 11:26:39;;;;;;;1.63;1.02;;;22.60;99.90;;;;;;6125044;23;21020;-95
2021/07/10 11:32:52;;;;;;;2.00;0.80;;;23.10;99.90;;;;;;6079287;22;20455;-95
2021/07/10 11:49:52;;;;;;;0.82;0.82;;;23.80;99.70;;;;;;6121011;23;20362;-96
2021/07/10 11:52:22;;;;;;;1.40;0.80;;;23.80;98.80;;;;;;6217194;23;20868;-96
2021/07/10 11:55:00;;;;;;;1.85;0.95;;;24.20;99.90;;;;;;6196584;23;20689;-96
2021/07/10 11:57:39;;;;;;;1.30;1.02;;;24.30;99.70;;;;;;6195021;23;20396;-96
2021/07/10 12:00:17;;;;;;;1.97;0.90;;;24.60;99.70;;;;;;6201002;23;20403;-96
2021/07/10 12:02:58;;;;;;;2.85;1.13;;;24.70;96.50;;;;;;6196777;23;20464;-96
2021/07/10 12:08:41;;;;;;;2.17;1.05;;;25.40;95.80;;;;;;6218826;23;20384;-95
2021/07/10 12:12:13;;;;;;;;;;;;;;;;;;;;;
2021/07/10 12:15:18;;;;;;;1.42;0.98;;;25.50;97.30;;;;;;6185915;23;20406;-95
2021/07/10 12:35:03;;;;;;;;;;;;;;;;;;;;;
2021/07/10 15:24:53;;;;;;;1.10;1.00;;;30.30;73.10;;;;;;6117564;23;20382;31
2021/07/10 16:31:28;;;;;;;2.03;0.85;;;30.20;75.80;;;;;;6177190;22;20415;31
2021/07/10 16:34:14;;;;;;;1.92;1.00;;;30.00;71.90;;;;;;6067187;23;20446;-92
2021/07/10 16:36:50;;;;;;;1.50;1.00;;;29.60;75.10;;;;;;6048415;23;20392;-94
2021/07/10 16:39:17;;;;;;;1.80;1.30;;;29.50;74.40;;;;;;6047612;23;20408;-95
2021/07/10 16:41:45;;;;;;;1.85;1.00;;;29.20;73.00;;;;;;6056274;23;20394;-94
2021/07/10 16:44:12;;;;;;;1.20;1.10;;;29.10;69.70;;;;;;6073321;23;20478;-96
2021/07/10 16:46:39;;;;;;;2.77;1.10;;;28.90;73.90;;;;;;6073279;23;20776;-95
2021/07/10 16:49:07;;;;;;;3.80;1.10;;;28.80;74.60;;;;;;6074019;23;20466;-96
2021/07/10 16:51:39;;;;;;;1.55;1.08;;;29.10;74.70;;;;;;6074354;23;20394;-94
2021/07/10 16:54:07;;;;;;;1.90;0.80;;;28.90;78.20;;;;;;6079432;23;20391;-93
2021/07/10 16:56:49;;;;;;;0.90;0.70;;;28.70;76.30;;;;;;6094281;23;20378;-95
2021/07/10 16:59:16;;;;;;;1.33;0.70;;;29.10;77.30;;;;;;6095298;23;20458;-93
2021/07/10 17:01:48;;;;;;;1.53;0.80;;;29.00;78.20;;;;;;6082556;23;20462;-94
2021/07/10 17:04:15;;;;;;;4.57;0.90;;;28.80;76.80;;;;;;6082873;23;20728;-93
2021/07/10 17:06:46;;;;;;;1.05;0.75;;;28.70;76.60;;;;;;6081420;23;20394;-92
2021/07/10 17:09:14;;;;;;;1.00;0.80;;;28.60;79.10;;;;;;6073075;23;20757;-92
2021/07/10 17:11:44;;;;;;;3.27;0.77;;;28.40;78.30;;;;;;6073240;23;20391;-92
2021/07/10 17:14:13;;;;;;;1.25;0.80;;;28.30;79.70;;;;;;6073113;23;20405;-93
2021/07/10 17:16:42;;;;;;;1.45;0.70;;;28.40;78.80;;;;;;6073271;23;20914;-92
2021/07/10 17:19:11;;;;;;;0.85;0.80;;;28.30;81.40;;;;;;6073094;23;20891;-93
2021/07/10 17:21:39;;;;;;;1.30;0.70;;;27.90;76.60;;;;;;6072666;23;20445;-92
2021/07/10 17:24:11;;;;;;;1.15;0.80;;;28.00;79.30;;;;;;6073125;23;20414;-92
2021/07/10 17:26:42;;;;;;;1.63;0.80;;;27.80;79.90;;;;;;6074107;23;20777;-92
2021/07/10 17:29:11;;;;;;;2.28;0.80;;;27.60;80.30;;;;;;6072930;23;20390;-92
2021/07/10 17:31:40;;;;;;;1.85;0.75;;;27.50;81.90;;;;;;6073434;23;20394;-94
2021/07/10 17:34:12;;;;;;;5.47;0.80;;;27.10;81.80;;;;;;6072743;23;20509;-93
2021/07/10 17:36:44;;;;;;;1.40;0.80;;;27.00;82.10;;;;;;6073481;23;20935;-94
2021/07/10 17:39:16;;;;;;;1.70;0.90;;;27.00;84.00;;;;;;6073026;23;20859;-94
2021/07/10 17:41:45;;;;;;;1.42;0.70;;;26.80;82.00;;;;;;6072783;23;20736;-93
2021/07/10 17:44:16;;;;;;;0.70;0.70;;;26.50;82.70;;;;;;6072889;23;20390;-94
2021/07/10 17:46:46;;;;;;;3.70;0.70;;;26.10;83.00;;;;;;6073122;23;20394;-93
2021/07/10 17:49:15;;;;;;;1.77;0.88;;;26.10;82.30;;;;;;6072919;23;20394;-95
2021/07/10 17:51:45;;;;;;;2.08;0.90;;;25.60;84.00;;;;;;6072746;23;20397;-94
2021/07/10 17:54:15;;;;;;;2.05;0.80;;;25.30;84.90;;;;;;6072347;23;20394;-94
